createdAt,value
2022-10-24T00:02:34.246Z,99704.84
2022-10-24T00:05:24.093Z,99706.88
2022-10-24T00:08:12.611Z,99701.47
2022-10-24T00:11:01.007Z,99670.47
2022-10-24T00:13:50.314Z,99705.56
2022-10-24T00:16:38.773Z,99696.09
2022-10-24T00:19:27.344Z,99704.66
2022-10-24T00:22:17.128Z,99675.34
2022-10-24T00:25:06.271Z,99669.28
2022-10-24T00:27:54.676Z,99672.34
2022-10-24T00:30:43.183Z,99641.88
2022-10-24T00:33:31.773Z,99679.59
2022-10-24T00:36:22.397Z,99658.47
2022-10-24T00:39:13.448Z,99677.81
2022-10-24T00:42:01.850Z,99675.25
2022-10-24T00:44:52.272Z,99701.66
2022-10-24T00:47:40.677Z,99674.66
2022-10-24T00:50:29.833Z,99679.75
2022-10-24T00:53:18.483Z,99683.22
2022-10-24T00:56:08.933Z,99681.38
2022-10-24T00:58:58.651Z,99691.47
2022-10-24T01:01:47.494Z,99694.28
2022-10-24T01:04:36.070Z,99688.19
2022-10-24T01:07:39.174Z,99687.47
2022-10-24T01:10:39.569Z,99640.16
2022-10-24T01:13:36.174Z,99685.47
2022-10-24T01:16:29.286Z,99687.72
2022-10-24T01:19:38.727Z,99681.50
2022-10-24T01:22:30.736Z,99677.75
2022-10-24T01:25:24.560Z,99674.81
2022-10-24T01:28:14.421Z,99671.09
2022-10-24T01:31:07.276Z,99665.91
2022-10-24T01:34:00.308Z,99662.75
2022-10-24T01:36:52.424Z,99669.78
2022-10-24T01:39:44.770Z,99661.09
2022-10-24T01:42:34.064Z,99654.94
2022-10-24T01:45:26.533Z,99652.53
2022-10-24T01:48:19.870Z,99645.28
2022-10-24T01:51:09.390Z,99660.84
2022-10-24T01:53:58.105Z,99651.56
2022-10-24T01:56:46.588Z,99642.94
2022-10-24T01:59:43.832Z,99641.84
2022-10-24T02:02:35.991Z,99648.56
2022-10-24T02:05:29.924Z,99652.22
2022-10-24T02:08:20.652Z,99654.28
2022-10-24T02:11:10.051Z,99642.56
2022-10-24T02:14:02.612Z,99623.03
2022-10-24T02:16:51.144Z,99651.38
2022-10-24T02:19:39.585Z,99651.97
2022-10-24T02:22:31.830Z,99645.03
2022-10-24T02:25:25.866Z,99646.34
2022-10-24T02:28:17.457Z,99646.34
2022-10-24T02:31:10.119Z,99619.13
2022-10-24T02:33:58.728Z,99640.78
2022-10-24T02:36:49.120Z,99624.75
2022-10-24T02:39:40.080Z,99639.28
2022-10-24T02:45:20.212Z,99635.34
2022-10-24T02:48:11.262Z,99628.38
2022-10-24T02:51:00.051Z,99615.72
2022-10-24T02:53:48.654Z,99623.31
2022-10-24T02:56:40.439Z,99619.31
2022-10-24T02:59:28.925Z,99608.84
2022-10-24T03:02:17.459Z,99612.97
2022-10-24T03:05:06.470Z,99611.66
2022-10-24T03:07:54.901Z,99605.28
2022-10-24T03:10:43.344Z,99608.03
2022-10-24T03:13:33.179Z,99614.31
2022-10-24T03:16:21.626Z,99626.31
2022-10-24T03:19:10.044Z,99634.91
2022-10-24T03:21:58.466Z,99628.25
2022-10-24T03:24:55.148Z,99646.09
2022-10-24T03:27:44.102Z,99650.25
2022-10-24T03:30:34.142Z,99638.28
2022-10-24T03:33:22.777Z,99646.97
2022-10-24T03:36:11.207Z,99642.28
2022-10-24T03:38:59.624Z,99647.09
2022-10-24T03:41:48.033Z,99606.16
2022-10-24T03:44:36.442Z,99641.28
2022-10-24T03:47:26.215Z,99640.72
2022-10-24T03:50:14.644Z,99630.06
2022-10-24T03:53:03.079Z,99638.41
2022-10-24T03:55:51.783Z,99624.13
2022-10-24T03:58:40.249Z,99637.13
2022-10-24T04:01:28.929Z,99609.50
2022-10-24T04:04:18.833Z,99645.38
2022-10-24T04:07:07.266Z,99651.25
2022-10-24T04:09:55.648Z,99662.03
2022-10-24T04:12:44.071Z,99667.91
2022-10-24T04:15:32.484Z,99670.38
2022-10-24T04:18:20.894Z,99676.47
2022-10-24T04:21:10.701Z,99663.25
2022-10-24T04:23:59.538Z,99676.34
2022-10-24T04:26:47.974Z,99683.03
2022-10-24T04:29:36.543Z,99675.16
2022-10-24T04:32:24.964Z,99664.75
2022-10-24T04:35:14.105Z,99664.75
2022-10-24T04:38:03.944Z,99663.91
2022-10-24T04:40:53.492Z,99655.69
2022-10-24T04:43:41.898Z,99649.94
2022-10-24T04:46:30.401Z,99644.44
2022-10-24T04:49:18.945Z,99646.34
2022-10-24T04:52:07.449Z,99642.44
2022-10-24T04:54:57.218Z,99677.63
2022-10-24T04:57:45.929Z,99687.28
2022-10-24T05:00:34.464Z,99739.69
2022-10-24T05:03:23.243Z,99755.28
2022-10-24T05:06:11.742Z,99730.94
2022-10-24T05:09:00.175Z,99727.09
2022-10-24T05:11:49.907Z,99730.00
2022-10-24T05:14:38.605Z,99619.59
2022-10-24T05:17:27.067Z,99664.75
2022-10-24T05:20:16.687Z,99721.22
2022-10-24T05:23:05.128Z,99716.41
2022-10-24T05:25:53.580Z,99713.94
2022-10-24T05:28:43.329Z,99718.03
2022-10-24T05:34:25.272Z,99713.47
2022-10-24T05:37:13.833Z,99685.94
2022-10-24T05:40:02.243Z,99721.09
2022-10-24T05:42:52.180Z,99720.03
2022-10-24T05:45:41.989Z,99691.28
2022-10-24T05:48:30.435Z,99712.34
2022-10-24T05:51:18.876Z,99712.34
2022-10-24T05:54:07.340Z,99710.84
2022-10-24T05:56:55.780Z,99711.03
2022-10-24T05:59:44.212Z,99710.38
2022-10-24T06:02:34.109Z,99701.16
2022-10-24T06:05:22.749Z,99703.50
2022-10-24T06:08:11.682Z,99710.19
2022-10-24T06:11:00.115Z,99720.94
2022-10-24T06:13:48.532Z,99734.84
2022-10-24T06:16:37.359Z,99745.75
2022-10-24T06:19:27.116Z,99742.66
2022-10-24T06:22:15.627Z,99728.81
2022-10-24T06:25:04.014Z,99737.09
2022-10-24T06:27:52.594Z,99708.59
2022-10-24T06:30:42.368Z,99710.63
2022-10-24T06:33:30.920Z,99746.47
2022-10-24T06:36:21.027Z,99763.03
2022-10-24T06:39:09.488Z,99783.56
2022-10-24T06:41:57.958Z,99784.41
2022-10-24T06:44:46.380Z,99785.78
2022-10-24T06:47:34.901Z,99774.91
2022-10-24T06:50:23.348Z,99756.72
2022-10-24T06:53:13.176Z,99782.19
2022-10-24T06:56:01.924Z,99783.81
2022-10-24T06:58:50.380Z,99780.03
2022-10-24T07:01:38.924Z,99797.91
2022-10-24T07:04:28.353Z,99735.34
2022-10-24T07:07:17.784Z,99783.13
2022-10-24T07:10:09.076Z,99779.78
2022-10-24T07:12:57.507Z,99772.44
2022-10-24T07:15:45.941Z,99768.91
2022-10-24T07:18:34.593Z,99758.22
2022-10-24T07:21:25.022Z,99762.88
2022-10-24T07:24:13.656Z,99784.66
2022-10-24T07:27:03.444Z,99783.00
2022-10-24T07:29:52.365Z,99786.63
2022-10-24T07:32:40.820Z,99791.63
2022-10-24T07:35:29.312Z,99793.16
2022-10-24T07:38:18.886Z,99805.13
2022-10-24T07:41:07.598Z,99788.59
2022-10-24T07:43:58.200Z,99803.91
2022-10-24T07:46:46.742Z,99795.31
2022-10-24T07:49:35.327Z,99793.84
2022-10-24T07:52:23.771Z,99809.50
2022-10-24T07:55:12.304Z,99804.44
2022-10-24T07:58:00.729Z,99794.34
2022-10-24T08:00:50.532Z,99797.28
2022-10-24T08:03:39.064Z,99801.63
2022-10-24T08:06:30.800Z,99801.38
2022-10-24T08:09:20.335Z,99802.56
2022-10-24T08:12:08.959Z,99808.50
2022-10-24T08:14:57.652Z,99801.63
2022-10-24T08:17:47.518Z,99793.94
2022-10-24T08:20:36.044Z,99792.69
2022-10-24T08:23:25.451Z,99799.84
2022-10-24T08:26:17.049Z,99789.09
2022-10-24T08:29:10.770Z,99806.47
2022-10-24T08:31:59.215Z,99798.75
2022-10-24T08:34:49.046Z,99797.50
2022-10-24T08:37:38.622Z,99776.22
2022-10-24T08:40:27.171Z,99792.94
2022-10-24T08:43:15.956Z,99787.94
2022-10-24T08:46:11.880Z,99790.06
2022-10-24T08:49:04.648Z,99788.75
2022-10-24T08:51:57.487Z,99786.53
2022-10-24T08:54:46.898Z,99790.78
2022-10-24T08:57:35.608Z,99791.47
2022-10-24T09:00:26.028Z,99802.84
2022-10-24T09:03:31.282Z,99800.72
2022-10-24T09:06:28.203Z,99786.28
2022-10-24T09:09:22.515Z,99803.00
2022-10-24T09:12:14.394Z,99808.25
2022-10-24T09:15:02.851Z,99805.38
2022-10-24T09:17:51.521Z,99787.44
2022-10-24T09:20:39.965Z,99813.66
2022-10-24T09:23:28.873Z,99796.28
2022-10-24T09:26:25.659Z,99813.03
2022-10-24T09:29:14.128Z,99819.91
2022-10-24T09:32:03.214Z,99830.47
2022-10-24T09:34:51.715Z,99836.78
2022-10-24T09:37:44.311Z,99847.94
2022-10-24T09:40:35.673Z,99848.00
2022-10-24T09:43:35.382Z,99841.22
2022-10-24T09:46:25.316Z,99845.09
2022-10-24T09:49:22.456Z,99817.75
2022-10-24T09:52:20.596Z,99852.53
2022-10-24T09:55:18.097Z,99851.50
2022-10-24T09:58:06.650Z,99843.97
2022-10-24T10:01:04.804Z,99852.44
2022-10-24T10:04:07.593Z,99822.78
2022-10-24T10:06:57.553Z,99844.94
2022-10-24T10:09:55.632Z,99845.03
2022-10-24T10:12:46.730Z,99860.31
2022-10-24T10:15:37.942Z,99859.19
2022-10-24T10:18:34.006Z,99853.31
2022-10-24T10:21:23.203Z,99851.06
2022-10-24T10:24:25.383Z,99856.03
2022-10-24T10:27:30.236Z,99864.97
2022-10-24T10:30:22.410Z,99860.69
2022-10-24T10:33:17.989Z,99854.03
2022-10-24T10:36:12.757Z,99838.69
2022-10-24T10:39:16.513Z,99835.09
2022-10-24T10:42:09.124Z,99847.44
2022-10-24T10:45:10.016Z,99846.91
2022-10-24T10:48:08.570Z,99851.31
2022-10-24T10:51:02.236Z,99848.63
2022-10-24T10:54:00.607Z,99863.16
2022-10-24T10:56:53.618Z,99869.00
2022-10-24T10:59:49.064Z,99877.47
2022-10-24T11:02:57.867Z,99881.63
2022-10-24T11:05:54.616Z,99884.91
2022-10-24T11:08:57.131Z,99896.91
2022-10-24T11:11:49.958Z,99890.66
2022-10-24T11:14:41.012Z,99884.63
2022-10-24T11:17:33.500Z,99892.06
2022-10-24T11:20:26.339Z,99891.56
2022-10-24T11:23:19.647Z,99880.47
2022-10-24T11:26:11.784Z,99887.63
2022-10-24T11:29:05.216Z,99885.19
2022-10-24T11:31:56.762Z,99771.31
2022-10-24T11:34:50.551Z,99883.13
2022-10-24T11:37:41.099Z,99889.94
2022-10-24T11:40:31.082Z,99888.09
2022-10-24T11:43:22.758Z,99893.84
2022-10-24T11:46:15.657Z,99892.78
2022-10-24T11:49:10.457Z,99884.31
2022-10-24T11:52:05.456Z,99885.44
2022-10-24T11:54:57.573Z,99880.25
2022-10-24T11:57:47.804Z,99867.19
2022-10-24T12:00:45.302Z,99866.09
2022-10-24T12:03:57.599Z,99849.53
2022-10-24T12:07:01.364Z,99851.16
2022-10-24T12:10:05.530Z,99854.69
2022-10-24T12:13:21.768Z,99862.34
2022-10-24T12:16:15.096Z,99847.34
2022-10-24T12:19:06.628Z,99843.00
2022-10-24T12:21:56.298Z,99808.44
2022-10-24T12:24:45.133Z,99832.69
2022-10-24T12:27:37.270Z,99830.78
2022-10-24T12:30:27.499Z,99834.59
2022-10-24T12:33:26.633Z,99823.44
2022-10-24T12:36:17.248Z,99832.94
2022-10-24T12:39:05.952Z,99826.69
2022-10-24T12:41:55.846Z,99831.28
2022-10-24T12:44:47.325Z,99835.34
2022-10-24T12:47:45.436Z,99839.19
2022-10-24T12:50:58.691Z,99839.69
2022-10-24T12:54:21.229Z,99833.38
2022-10-24T12:57:23.882Z,99834.44
2022-10-24T13:00:24.360Z,99837.16
2022-10-24T13:03:17.581Z,99837.16
2022-10-24T13:06:08.673Z,99841.47
2022-10-24T13:09:12.689Z,99844.69
2022-10-24T13:12:10.954Z,99824.53
2022-10-24T13:15:15.357Z,99834.56
2022-10-24T13:18:15.170Z,99841.63
2022-10-24T13:21:16.528Z,99836.16
2022-10-24T13:24:21.081Z,99837.28
2022-10-24T13:27:24.983Z,99834.84
2022-10-24T13:30:34.732Z,99831.28
2022-10-24T13:33:41.504Z,99838.16
2022-10-24T13:36:32.485Z,99831.28
2022-10-24T13:39:25.008Z,99829.88
2022-10-24T13:42:24.660Z,99828.75
2022-10-24T13:45:26.249Z,99838.25
2022-10-24T13:48:19.187Z,99841.75
2022-10-24T13:51:14.001Z,99853.47
2022-10-24T13:54:08.230Z,99842.63
2022-10-24T13:57:01.266Z,99854.34
2022-10-24T13:59:55.693Z,99742.72
2022-10-24T14:02:44.537Z,99852.38
2022-10-24T14:05:36.223Z,99853.50
2022-10-24T14:08:27.587Z,99825.47
2022-10-24T14:11:21.130Z,99843.44
2022-10-24T14:14:27.488Z,99848.63
2022-10-24T14:17:23.579Z,99853.84
2022-10-24T14:20:22.063Z,99851.16
2022-10-24T14:23:24.572Z,99864.25
2022-10-24T14:26:16.620Z,99856.09
2022-10-24T14:29:05.088Z,99846.25
2022-10-24T14:31:57.867Z,99847.91
2022-10-24T14:34:48.283Z,99852.81
2022-10-24T14:37:37.712Z,99844.59
2022-10-24T14:40:26.302Z,99842.41
2022-10-24T14:43:16.959Z,99842.41
2022-10-24T14:46:28.538Z,99853.03
2022-10-24T14:49:23.242Z,99852.78
2022-10-24T14:52:13.892Z,99858.50
2022-10-24T14:55:04.675Z,99858.25
2022-10-24T14:57:54.131Z,99847.09
2022-10-24T15:00:42.651Z,99857.75
2022-10-24T15:03:31.145Z,99857.75
2022-10-24T15:06:24.963Z,99854.75
2022-10-24T15:09:17.786Z,99853.13
2022-10-24T15:12:13.474Z,99852.88
2022-10-24T15:15:24.724Z,99857.75
2022-10-24T15:18:19.947Z,99867.84
2022-10-24T15:21:14.156Z,99872.19
2022-10-24T15:24:04.512Z,99861.81
2022-10-24T15:26:53.126Z,99855.81
2022-10-24T15:29:41.829Z,99866.16
2022-10-24T15:32:30.540Z,99871.03
2022-10-24T15:35:19.399Z,99854.97
2022-10-24T15:38:14.941Z,99868.06
2022-10-24T15:41:04.846Z,99840.25
2022-10-24T15:43:53.360Z,99866.66
2022-10-24T15:46:41.800Z,99863.94
2022-10-24T15:49:31.418Z,99853.03
2022-10-24T15:52:19.948Z,99867.75
2022-10-24T15:55:12.837Z,99871.53
2022-10-24T15:58:03.125Z,99863.59
2022-10-24T16:00:51.752Z,99860.06
2022-10-24T16:03:40.224Z,99853.25
2022-10-24T16:06:29.282Z,99858.66
2022-10-24T16:09:19.977Z,99861.56
2022-10-24T16:12:08.814Z,99864.25
2022-10-24T16:14:58.654Z,99876.44
2022-10-24T16:17:47.347Z,99882.88
2022-10-24T16:20:36.043Z,99883.66
2022-10-24T16:23:24.879Z,99878.06
2022-10-24T16:26:13.320Z,99890.28
2022-10-24T16:29:01.820Z,99896.47
2022-10-24T16:31:51.872Z,99887.66
2022-10-24T16:34:40.329Z,99897.00
2022-10-24T16:37:28.808Z,99895.56
2022-10-24T16:40:17.956Z,99897.38
2022-10-24T16:43:06.731Z,99891.34
2022-10-24T16:45:59.227Z,99901.00
2022-10-24T16:48:49.228Z,99904.47
2022-10-24T16:51:41.735Z,99899.53
2022-10-24T16:54:32.521Z,99905.97
2022-10-24T16:57:21.337Z,99915.16
2022-10-24T17:00:14.176Z,99921.06
2022-10-24T17:03:02.605Z,99908.50
2022-10-24T17:05:52.807Z,99892.16
2022-10-24T17:08:41.271Z,99897.69
2022-10-24T17:11:44.777Z,99907.66
2022-10-24T17:14:36.311Z,99865.56
2022-10-24T17:17:24.787Z,99916.88
2022-10-24T17:20:13.935Z,99913.41
2022-10-24T17:23:06.431Z,99918.88
2022-10-24T17:25:55.869Z,99942.84
2022-10-24T17:28:45.480Z,99950.03
2022-10-24T17:31:34.155Z,99967.63
2022-10-24T17:34:23.431Z,99983.56
2022-10-24T17:37:21.599Z,99982.59
2022-10-24T17:40:16.787Z,99996.13
2022-10-24T17:43:06.845Z,100014.06
2022-10-24T17:45:57.048Z,100028.91
2022-10-24T17:48:45.671Z,100029.50
2022-10-24T17:51:37.475Z,100035.59
2022-10-24T17:54:25.944Z,100027.56
2022-10-24T17:57:16.009Z,100011.38
2022-10-24T18:00:04.977Z,100015.16
2022-10-24T18:02:54.299Z,100013.09
2022-10-24T18:05:45.683Z,100021.03
2022-10-24T18:08:35.397Z,100034.84
2022-10-24T18:11:24.112Z,100040.47
2022-10-24T18:14:14.557Z,100038.19
2022-10-24T18:17:03.009Z,100040.22
2022-10-24T18:19:51.560Z,100044.22
2022-10-24T18:22:40.256Z,100052.13
2022-10-24T18:25:29.576Z,100057.19
2022-10-24T18:28:18.262Z,100048.03
2022-10-24T18:31:09.830Z,100038.03
2022-10-24T18:34:06.081Z,100039.94
2022-10-24T18:36:57.420Z,100048.16
2022-10-24T18:39:46.306Z,100044.75
2022-10-24T18:42:39.193Z,100047.81
2022-10-24T18:45:29.178Z,100024.91
2022-10-24T18:48:20.656Z,100018.69
2022-10-24T18:51:20.439Z,100032.88
2022-10-24T18:54:14.903Z,100034.75
2022-10-24T18:57:04.054Z,100042.97
2022-10-24T18:59:53.177Z,100027.84
2022-10-24T19:02:49.519Z,100046.03
2022-10-24T19:05:44.150Z,100043.31
2022-10-24T19:08:33.157Z,100052.38
2022-10-24T19:11:24.239Z,100045.47
2022-10-24T19:14:14.915Z,100048.97
2022-10-24T19:17:03.714Z,100052.16
2022-10-24T19:19:53.688Z,100026.56
2022-10-24T19:22:43.854Z,100022.56
2022-10-24T19:25:32.649Z,100016.31
2022-10-24T19:28:21.390Z,100033.25
2022-10-24T19:31:12.441Z,100009.06
2022-10-24T19:34:01.391Z,100051.56
2022-10-24T19:36:49.860Z,100061.91
2022-10-24T19:39:39.765Z,100071.41
2022-10-24T19:42:28.354Z,100063.31
2022-10-24T19:45:19.277Z,100077.75
2022-10-24T19:48:12.231Z,100077.06
2022-10-24T19:51:03.278Z,100058.03
2022-10-24T19:53:52.548Z,100021.38
2022-10-24T19:56:42.350Z,100066.75
2022-10-24T19:59:33.858Z,100076.97
2022-10-24T20:02:22.867Z,100071.56
2022-10-24T20:05:11.341Z,100068.47
2022-10-24T20:08:00.035Z,100074.59
2022-10-24T20:10:52.390Z,100088.22
2022-10-24T20:13:42.541Z,100073.88
2022-10-24T20:16:32.081Z,100105.22
2022-10-24T20:19:20.903Z,100097.72
2022-10-24T20:22:09.752Z,100107.94
2022-10-24T20:24:58.325Z,100093.16
2022-10-24T20:27:48.886Z,100101.97
2022-10-24T20:30:41.634Z,100020.56
2022-10-24T20:33:30.092Z,100103.13
2022-10-24T20:36:20.624Z,100099.03
2022-10-24T20:39:09.651Z,100100.75
2022-10-24T20:41:58.144Z,100074.56
2022-10-24T20:44:46.564Z,100109.22
2022-10-24T20:47:36.669Z,100101.81
2022-10-24T20:50:25.088Z,100107.22
2022-10-24T20:53:13.658Z,100119.78
2022-10-24T20:56:06.333Z,100123.00
2022-10-24T20:58:56.041Z,100129.94
2022-10-24T21:01:44.704Z,100132.59
2022-10-24T21:04:34.571Z,100135.75
2022-10-24T21:07:22.953Z,100140.66
2022-10-24T21:10:11.396Z,100146.63
2022-10-24T21:12:59.801Z,100151.41
2022-10-24T21:15:48.358Z,100153.22
2022-10-24T21:18:37.546Z,100157.34
2022-10-24T21:21:27.915Z,100107.00
2022-10-24T21:24:17.848Z,100158.22
2022-10-24T21:27:06.313Z,100163.69
2022-10-24T21:29:54.710Z,100162.78
2022-10-24T21:32:43.174Z,100159.69
2022-10-24T21:35:31.763Z,100162.72
2022-10-24T21:38:21.504Z,100175.22
2022-10-24T21:41:11.167Z,100177.97
2022-10-24T21:43:59.634Z,100174.06
2022-10-24T21:46:48.109Z,100171.06
2022-10-24T21:49:36.576Z,100169.16
2022-10-24T21:52:25.105Z,100173.53
2022-10-24T21:55:14.912Z,100174.66
2022-10-24T21:58:03.318Z,100181.94
2022-10-24T22:00:51.763Z,100184.06
2022-10-24T22:03:40.659Z,100179.53
2022-10-24T22:06:31.074Z,100178.31
2022-10-24T22:09:23.425Z,100184.03
2022-10-24T22:12:13.254Z,100185.13
2022-10-24T22:15:01.734Z,100187.00
2022-10-24T22:17:50.507Z,100196.38
2022-10-24T22:20:40.153Z,100180.25
2022-10-24T22:23:29.162Z,100158.19
2022-10-24T22:26:17.570Z,100195.00
2022-10-24T22:29:08.725Z,100197.03
2022-10-24T22:31:57.837Z,100167.53
2022-10-24T22:34:46.756Z,100202.19
2022-10-24T22:37:35.238Z,100205.31
2022-10-24T22:40:26.784Z,100214.66
2022-10-24T22:43:15.927Z,100210.38
2022-10-24T22:46:14.770Z,100215.41
2022-10-24T22:49:07.652Z,100209.00
2022-10-24T22:51:56.636Z,100207.19
2022-10-24T22:54:45.732Z,100217.09
2022-10-24T22:57:37.051Z,100215.84
2022-10-24T23:00:26.280Z,100226.38
2022-10-24T23:03:23.362Z,100226.63
2022-10-24T23:06:15.713Z,100225.38
2022-10-24T23:09:04.642Z,100190.94
2022-10-24T23:11:54.022Z,100222.09
2022-10-24T23:14:43.112Z,100225.44
2022-10-24T23:17:32.725Z,100232.66
2022-10-24T23:20:29.542Z,100229.59
2022-10-24T23:23:29.573Z,100227.13
2022-10-24T23:26:27.135Z,100237.03
2022-10-24T23:29:20.220Z,100247.78
2022-10-24T23:32:13.848Z,100245.31
2022-10-24T23:35:02.825Z,100243.06
2022-10-24T23:37:54.115Z,100241.41
2022-10-24T23:40:42.975Z,100249.06
2022-10-24T23:43:32.040Z,100235.25
2022-10-24T23:46:26.235Z,100252.81
2022-10-24T23:49:24.087Z,100244.13
2022-10-24T23:52:16.946Z,100249.09
2022-10-24T23:55:09.653Z,100222.63
2022-10-24T23:57:58.113Z,100231.50
